createdAt,value
2023-05-02T00:01:05.424Z,3.63
2023-05-02T00:03:33.216Z,3.58
2023-05-02T00:06:00.846Z,3.40
2023-05-02T00:08:27.582Z,3.40
2023-05-02T00:10:54.189Z,3.30
2023-05-02T00:13:20.629Z,3.08
2023-05-02T00:15:47.242Z,3.80
2023-05-02T00:18:13.652Z,3.40
2023-05-02T00:20:43.246Z,3.58
2023-05-02T00:23:13.957Z,3.67
2023-05-02T00:25:46.762Z,3.95
2023-05-02T00:28:13.968Z,3.45
2023-05-02T00:30:46.883Z,3.30
2023-05-02T00:33:15.094Z,3.67
2023-05-02T00:35:42.039Z,3.90
2023-05-02T00:38:08.710Z,3.47
2023-05-02T00:40:48.763Z,3.67
2023-05-02T00:43:15.893Z,3.80
2023-05-02T00:45:46.534Z,3.53
2023-05-02T00:48:13.502Z,4.00
2023-05-02T00:50:41.018Z,4.40
2023-05-02T00:53:09.589Z,3.88
2023-05-02T00:55:36.471Z,3.57
2023-05-02T00:58:05.115Z,4.75
2023-05-02T01:00:38.456Z,5.32
2023-05-02T01:03:25.190Z,5.07
2023-05-02T01:06:07.467Z,5.47
2023-05-02T01:08:44.802Z,4.80
2023-05-02T01:11:16.498Z,5.60
2023-05-02T01:13:43.608Z,6.15
2023-05-02T01:16:11.673Z,6.20
2023-05-02T01:18:39.762Z,6.03
2023-05-02T01:21:07.932Z,6.60
2023-05-02T01:23:44.415Z,6.47
2023-05-02T01:26:37.830Z,8.32
2023-05-02T01:29:05.946Z,7.78
2023-05-02T01:31:35.816Z,7.65
2023-05-02T01:34:03.177Z,7.60
2023-05-02T01:36:31.425Z,8.25
2023-05-02T01:38:59.171Z,7.93
2023-05-02T01:41:27.029Z,9.23
2023-05-02T01:43:57.924Z,8.35
2023-05-02T01:46:28.510Z,7.97
2023-05-02T01:48:57.731Z,7.82
2023-05-02T01:51:29.989Z,7.30
2023-05-02T01:54:01.268Z,7.15
2023-05-02T01:56:29.560Z,6.90
2023-05-02T01:58:56.868Z,7.70
2023-05-02T02:01:28.922Z,7.13
2023-05-02T02:03:56.203Z,6.47
2023-05-02T02:06:22.895Z,6.25
2023-05-02T02:08:49.823Z,5.65
2023-05-02T02:11:17.972Z,5.40
2023-05-02T02:13:48.162Z,4.38
2023-05-02T02:16:19.451Z,3.83
2023-05-02T02:18:46.628Z,3.88
2023-05-02T02:21:17.046Z,2.90
2023-05-02T02:23:45.467Z,2.40
2023-05-02T02:26:12.872Z,2.25
2023-05-02T02:28:39.566Z,2.40
2023-05-02T02:31:06.415Z,2.70
2023-05-02T02:33:32.956Z,2.25
2023-05-02T02:36:09.428Z,2.15
2023-05-02T02:38:40.428Z,1.70
2023-05-02T02:41:12.694Z,1.45
2023-05-02T02:43:49.026Z,1.40
2023-05-02T02:46:15.602Z,1.58
2023-05-02T02:48:48.492Z,1.50
2023-05-02T02:51:22.538Z,1.80
2023-05-02T02:53:52.088Z,1.80
2023-05-02T02:56:36.685Z,1.90
2023-05-02T02:59:21.784Z,2.15
2023-05-02T03:01:53.467Z,2.17
2023-05-02T03:04:22.025Z,2.10
2023-05-02T03:06:48.963Z,2.80
2023-05-02T03:09:18.679Z,2.50
2023-05-02T03:11:46.485Z,3.63
2023-05-02T03:14:13.001Z,2.88
2023-05-02T03:16:39.993Z,2.67
2023-05-02T03:19:06.945Z,3.47
2023-05-02T03:21:33.490Z,2.67
2023-05-02T03:24:00.868Z,2.88
2023-05-02T03:26:27.769Z,2.88
2023-05-02T03:28:54.755Z,3.55
2023-05-02T03:31:21.923Z,2.83
2023-05-02T03:33:49.534Z,2.90
2023-05-02T03:36:16.304Z,3.33
2023-05-02T03:38:42.699Z,3.47
2023-05-02T03:41:09.238Z,2.67
2023-05-02T03:43:35.783Z,3.20
2023-05-02T03:46:07.034Z,2.80
2023-05-02T03:48:33.771Z,2.53
2023-05-02T03:51:00.880Z,3.38
2023-05-02T03:53:27.610Z,2.90
2023-05-02T03:55:54.540Z,3.78
2023-05-02T03:58:21.290Z,2.72
2023-05-02T04:00:47.746Z,2.65
2023-05-02T04:03:14.243Z,2.53
2023-05-02T04:05:41.095Z,3.17
2023-05-02T04:08:07.742Z,2.53
2023-05-02T04:10:34.240Z,2.40
2023-05-02T04:13:03.283Z,3.53
2023-05-02T04:15:30.354Z,4.18
2023-05-02T04:17:59.760Z,2.88
2023-05-02T04:20:26.376Z,2.55
2023-05-02T04:22:53.047Z,2.53
2023-05-02T04:25:19.564Z,2.28
2023-05-02T04:27:46.252Z,3.10
2023-05-02T04:30:13.189Z,3.08
2023-05-02T04:32:39.851Z,3.50
2023-05-02T04:35:06.626Z,2.90
2023-05-02T04:37:33.124Z,2.83
2023-05-02T04:39:59.950Z,2.78
2023-05-02T04:42:27.727Z,2.63
2023-05-02T04:44:54.268Z,3.30
2023-05-02T04:47:20.818Z,3.50
2023-05-02T04:49:47.905Z,3.58
2023-05-02T04:52:15.311Z,2.85
2023-05-02T04:54:42.147Z,3.53
2023-05-02T04:57:10.270Z,3.08
2023-05-02T04:59:37.340Z,3.20
2023-05-02T05:02:04.106Z,3.08
2023-05-02T05:04:30.801Z,3.35
2023-05-02T05:06:57.409Z,3.53
2023-05-02T05:09:24.057Z,3.40
2023-05-02T05:11:50.609Z,3.20
2023-05-02T05:14:17.183Z,3.10
2023-05-02T05:16:44.438Z,2.88
2023-05-02T05:19:11.388Z,3.20
2023-05-02T05:21:38.479Z,1.90
2023-05-02T05:24:05.167Z,2.00
2023-05-02T05:26:31.795Z,1.40
2023-05-02T05:28:58.357Z,1.13
2023-05-02T05:31:27.666Z,1.20
2023-05-02T05:36:22.795Z,1.13
2023-05-02T05:41:19.099Z,1.27
2023-05-02T05:43:45.588Z,0.77
2023-05-02T05:46:12.085Z,1.25
2023-05-02T05:48:38.922Z,0.80
2023-05-02T05:51:06.064Z,1.10
2023-05-02T05:53:32.655Z,0.70
2023-05-02T05:55:59.510Z,1.75
2023-05-02T05:58:26.056Z,0.80
2023-05-02T06:00:52.593Z,0.75
2023-05-02T06:03:19.631Z,0.65
2023-05-02T06:05:46.452Z,0.60
2023-05-02T06:08:12.868Z,0.85
2023-05-02T06:10:39.317Z,1.92
2023-05-02T06:13:08.637Z,0.93
2023-05-02T06:18:04.642Z,0.60
2023-05-02T06:20:31.175Z,0.70
2023-05-02T06:22:57.732Z,0.90
2023-05-02T06:25:24.238Z,0.70
2023-05-02T06:27:50.951Z,0.90
2023-05-02T06:30:17.467Z,0.75
2023-05-02T06:32:44.264Z,0.80
2023-05-02T06:35:12.683Z,0.77
2023-05-02T06:37:39.367Z,0.73
2023-05-02T06:40:06.077Z,0.80
2023-05-02T06:42:32.661Z,0.70
2023-05-02T06:44:59.078Z,0.68
2023-05-02T06:47:26.058Z,0.60
2023-05-02T06:49:54.004Z,0.70
2023-05-02T06:52:20.579Z,0.70
2023-05-02T06:54:47.077Z,0.70
2023-05-02T06:57:13.650Z,0.70
2023-05-02T06:59:40.095Z,0.65
2023-05-02T07:02:06.538Z,0.60
2023-05-02T07:04:33.055Z,0.73
2023-05-02T07:06:59.536Z,0.60
2023-05-02T07:09:26.027Z,0.50
2023-05-02T07:11:52.591Z,0.68
2023-05-02T07:14:19.313Z,0.70
2023-05-02T07:16:45.958Z,0.75
2023-05-02T07:19:12.422Z,0.63
2023-05-02T07:21:38.829Z,0.70
2023-05-02T07:24:05.497Z,0.70
2023-05-02T07:26:32.068Z,0.52
2023-05-02T07:28:58.522Z,0.63
2023-05-02T07:31:25.045Z,0.70
2023-05-02T07:33:51.587Z,0.70
2023-05-02T07:36:18.294Z,0.60
2023-05-02T07:38:44.754Z,0.60
2023-05-02T07:41:11.535Z,0.68
2023-05-02T07:43:38.933Z,0.90
2023-05-02T07:46:06.527Z,0.70
2023-05-02T07:48:33.203Z,0.85
2023-05-02T07:51:09.412Z,0.75
2023-05-02T07:53:36.237Z,0.80
2023-05-02T07:56:08.953Z,0.77
2023-05-02T07:58:37.137Z,0.80
2023-05-02T08:01:04.093Z,0.70
2023-05-02T08:03:31.003Z,0.70
2023-05-02T08:05:57.504Z,0.90
2023-05-02T08:08:24.074Z,0.82
2023-05-02T08:10:51.800Z,0.70
2023-05-02T08:13:18.857Z,0.88
2023-05-02T08:15:46.064Z,0.90
2023-05-02T08:18:12.655Z,0.70
2023-05-02T08:20:39.192Z,0.82
2023-05-02T08:23:05.688Z,0.70
2023-05-02T08:25:40.461Z,0.90
2023-05-02T08:28:07.178Z,0.88
2023-05-02T08:30:33.964Z,1.13
2023-05-02T08:33:00.573Z,0.70
2023-05-02T08:35:29.006Z,0.90
2023-05-02T08:37:55.481Z,0.83
2023-05-02T08:40:33.921Z,0.77
2023-05-02T08:43:06.013Z,1.35
2023-05-02T08:45:40.164Z,0.80
2023-05-02T08:48:08.066Z,0.80
2023-05-02T08:50:40.480Z,1.02
2023-05-02T08:53:09.483Z,0.80
2023-05-02T08:55:40.163Z,0.80
2023-05-02T08:58:07.632Z,0.80
2023-05-02T09:00:38.312Z,0.80
2023-05-02T09:03:04.899Z,0.80
2023-05-02T09:05:32.817Z,0.90
2023-05-02T09:07:59.499Z,1.15
2023-05-02T09:10:28.459Z,0.63
2023-05-02T09:15:21.277Z,0.90
2023-05-02T09:17:48.711Z,0.70
2023-05-02T09:20:16.526Z,0.70
2023-05-02T09:22:50.609Z,0.90
2023-05-02T09:25:17.438Z,0.90
2023-05-02T09:27:53.318Z,0.70
2023-05-02T09:30:23.721Z,0.88
2023-05-02T09:32:56.121Z,0.85
2023-05-02T09:35:26.142Z,1.10
2023-05-02T09:37:53.803Z,0.80
2023-05-02T09:40:20.968Z,0.90
2023-05-02T09:42:48.033Z,0.70
2023-05-02T09:45:24.634Z,0.70
2023-05-02T09:47:51.744Z,0.90
2023-05-02T09:50:32.980Z,0.85
2023-05-02T09:53:07.145Z,0.88
2023-05-02T09:55:33.753Z,0.88
2023-05-02T09:58:02.181Z,1.00
2023-05-02T10:00:44.826Z,0.80
2023-05-02T10:03:16.145Z,0.85
2023-05-02T10:05:43.281Z,1.02
2023-05-02T10:08:10.464Z,1.10
2023-05-02T10:10:38.003Z,0.85
2023-05-02T10:13:05.246Z,0.85
2023-05-02T10:15:32.977Z,0.73
2023-05-02T10:18:01.416Z,0.70
2023-05-02T10:20:31.786Z,0.95
2023-05-02T10:23:02.272Z,0.80
2023-05-02T10:25:29.082Z,0.90
2023-05-02T10:27:59.509Z,0.90
2023-05-02T10:30:26.654Z,0.90
2023-05-02T10:32:56.176Z,0.93
2023-05-02T10:35:23.160Z,0.80
2023-05-02T10:37:50.636Z,0.95
2023-05-02T10:40:18.240Z,0.90
2023-05-02T10:42:46.311Z,0.70
2023-05-02T10:45:13.632Z,1.02
2023-05-02T10:47:40.159Z,1.17
2023-05-02T10:50:09.150Z,0.95
2023-05-02T10:52:38.447Z,0.90
2023-05-02T10:55:21.476Z,0.98
2023-05-02T10:57:59.925Z,1.00
2023-05-02T11:02:52.930Z,0.98
2023-05-02T11:05:19.575Z,1.40
2023-05-02T11:07:46.689Z,1.30
2023-05-02T11:10:23.497Z,1.30
2023-05-02T11:12:52.711Z,0.80
2023-05-02T11:15:28.797Z,1.00
2023-05-02T11:18:02.252Z,0.90
2023-05-02T11:20:29.292Z,1.10
2023-05-02T11:22:56.991Z,1.20
2023-05-02T11:25:30.913Z,0.90
2023-05-02T11:27:57.898Z,0.95
2023-05-02T11:30:38.045Z,1.00
2023-05-02T11:33:04.783Z,0.98
2023-05-02T11:35:31.696Z,1.08
2023-05-02T11:37:59.109Z,0.98
2023-05-02T11:40:26.333Z,1.08
2023-05-02T11:42:53.376Z,1.00
2023-05-02T11:45:21.305Z,1.20
2023-05-02T11:47:48.894Z,1.00
2023-05-02T11:50:15.699Z,0.90
2023-05-02T11:52:43.239Z,0.80
2023-05-02T11:55:13.696Z,1.05
2023-05-02T11:57:40.415Z,0.90
2023-05-02T12:00:08.045Z,0.93
2023-05-02T12:02:38.933Z,1.10
2023-05-02T12:05:06.631Z,0.85
2023-05-02T12:07:40.240Z,1.73
2023-05-02T12:10:07.384Z,1.33
2023-05-02T12:12:33.852Z,0.98
2023-05-02T12:15:04.400Z,1.20
2023-05-02T12:17:31.889Z,0.93
2023-05-02T12:19:59.619Z,1.13
2023-05-02T12:22:26.577Z,1.10
2023-05-02T12:24:56.586Z,1.00
2023-05-02T12:27:23.104Z,1.40
2023-05-02T12:29:50.180Z,1.05
2023-05-02T12:32:27.720Z,0.90
2023-05-02T12:34:54.562Z,1.33
2023-05-02T12:37:24.754Z,0.85
2023-05-02T12:39:51.560Z,1.15
2023-05-02T12:42:21.336Z,0.75
2023-05-02T12:44:49.039Z,1.00
2023-05-02T12:47:16.202Z,0.80
2023-05-02T12:49:52.956Z,0.93
2023-05-02T12:52:20.638Z,0.97
2023-05-02T12:57:24.145Z,1.10
2023-05-02T12:59:52.064Z,1.15
2023-05-02T13:02:18.623Z,1.00
2023-05-02T13:04:45.121Z,1.15
2023-05-02T13:07:11.823Z,1.10
2023-05-02T13:09:38.407Z,1.10
2023-05-02T13:12:06.065Z,1.00
2023-05-02T13:16:59.395Z,1.13
2023-05-02T13:19:25.985Z,1.10
2023-05-02T13:21:52.420Z,1.08
2023-05-02T13:24:18.988Z,1.00
2023-05-02T13:26:46.151Z,1.08
2023-05-02T13:29:12.815Z,1.08
2023-05-02T13:31:39.394Z,1.10
2023-05-02T13:34:06.101Z,0.90
2023-05-02T13:36:32.725Z,1.10
2023-05-02T13:38:59.169Z,1.00
2023-05-02T13:41:25.645Z,0.82
2023-05-02T13:43:52.403Z,1.00
2023-05-02T13:46:19.009Z,1.00
2023-05-02T13:48:46.008Z,1.15
2023-05-02T13:51:12.789Z,1.10
2023-05-02T13:53:39.883Z,0.98
2023-05-02T13:56:06.669Z,0.90
2023-05-02T13:58:33.135Z,0.93
2023-05-02T14:00:59.577Z,0.90
2023-05-02T14:03:26.406Z,0.77
2023-05-02T14:05:53.300Z,1.10
2023-05-02T14:08:19.849Z,0.90
2023-05-02T14:10:46.407Z,1.25
2023-05-02T14:13:12.832Z,1.00
2023-05-02T14:15:39.481Z,1.17
2023-05-02T14:18:06.286Z,1.13
2023-05-02T14:20:32.767Z,0.95
2023-05-02T14:22:59.273Z,1.00
2023-05-02T14:25:25.910Z,1.00
2023-05-02T14:27:52.353Z,0.90
2023-05-02T14:30:18.818Z,1.10
2023-05-02T14:32:45.526Z,1.08
2023-05-02T14:35:12.535Z,0.95
2023-05-02T14:37:39.489Z,1.55
2023-05-02T14:40:09.229Z,1.13
2023-05-02T14:42:36.038Z,0.90
2023-05-02T14:45:02.971Z,1.20
2023-05-02T14:47:32.884Z,1.30
2023-05-02T14:50:00.087Z,1.05
2023-05-02T14:52:27.243Z,1.10
2023-05-02T14:54:54.235Z,1.10
2023-05-02T14:57:20.783Z,1.10
2023-05-02T14:59:47.260Z,1.02
2023-05-02T15:02:14.783Z,1.05
2023-05-02T15:04:41.573Z,1.20
2023-05-02T15:07:08.290Z,0.90
2023-05-02T15:09:34.844Z,1.20
2023-05-02T15:12:02.857Z,1.20
2023-05-02T15:14:29.802Z,0.80
2023-05-02T15:16:56.773Z,1.10
2023-05-02T15:19:25.483Z,1.35
2023-05-02T15:21:57.337Z,1.00
2023-05-02T15:24:26.736Z,1.00
2023-05-02T15:26:53.502Z,1.27
2023-05-02T15:29:20.085Z,0.80
2023-05-02T15:31:46.730Z,1.20
2023-05-02T15:34:13.547Z,1.05
2023-05-02T15:36:40.994Z,0.90
2023-05-02T15:39:07.602Z,1.20
2023-05-02T15:41:34.610Z,0.77
2023-05-02T15:44:01.583Z,1.00
2023-05-02T15:46:28.489Z,1.10
2023-05-02T15:48:55.138Z,0.90
2023-05-02T15:51:21.641Z,1.10
2023-05-02T15:53:52.268Z,1.20
2023-05-02T15:56:20.472Z,0.98
2023-05-02T15:58:46.981Z,1.00
2023-05-02T16:01:13.538Z,0.80
2023-05-02T16:03:40.955Z,0.95
2023-05-02T16:06:07.991Z,1.00
2023-05-02T16:08:34.630Z,0.80
2023-05-02T16:11:01.904Z,1.00
2023-05-02T16:13:28.339Z,1.00
2023-05-02T16:15:55.754Z,1.00
2023-05-02T16:18:30.660Z,1.40
2023-05-02T16:20:57.596Z,0.90
2023-05-02T16:23:24.462Z,1.10
2023-05-02T16:25:56.470Z,1.08
2023-05-02T16:28:22.914Z,1.05
2023-05-02T16:30:49.278Z,0.98
2023-05-02T16:33:16.213Z,1.02
2023-05-02T16:35:42.947Z,1.20
2023-05-02T16:38:10.691Z,1.30
2023-05-02T16:40:37.548Z,1.10
2023-05-02T16:43:04.047Z,1.20
2023-05-02T16:45:30.528Z,1.05
2023-05-02T16:47:57.988Z,1.10
2023-05-02T16:50:24.625Z,1.17
2023-05-02T16:52:51.094Z,1.00
2023-05-02T16:55:17.902Z,1.15
2023-05-02T16:57:44.401Z,1.10
2023-05-02T17:00:12.709Z,1.10
2023-05-02T17:02:39.367Z,1.00
2023-05-02T17:05:06.268Z,1.20
2023-05-02T17:07:32.759Z,1.10
2023-05-02T17:09:59.571Z,1.10
2023-05-02T17:12:26.606Z,1.23
2023-05-02T17:14:53.061Z,1.20
2023-05-02T17:17:22.751Z,1.10
2023-05-02T17:19:50.289Z,1.40
2023-05-02T17:22:19.858Z,1.20
2023-05-02T17:24:48.561Z,1.20
2023-05-02T17:27:15.591Z,1.10
2023-05-02T17:29:42.185Z,1.38
2023-05-02T17:32:09.003Z,1.23
2023-05-02T17:34:36.725Z,1.00
2023-05-02T17:37:03.209Z,1.10
2023-05-02T17:39:29.865Z,1.13
2023-05-02T17:41:56.305Z,1.20
2023-05-02T17:44:26.409Z,1.00
2023-05-02T17:46:53.494Z,1.13
2023-05-02T17:49:20.050Z,1.33
2023-05-02T17:51:46.600Z,1.20
2023-05-02T17:54:13.133Z,1.20
2023-05-02T17:56:39.720Z,1.23
2023-05-02T17:59:06.162Z,1.40
2023-05-02T18:01:32.893Z,1.35
2023-05-02T18:03:59.852Z,1.00
2023-05-02T18:06:27.508Z,2.15
2023-05-02T18:08:54.154Z,1.20
2023-05-02T18:11:21.143Z,1.00
2023-05-02T18:13:49.706Z,1.23
2023-05-02T18:16:16.404Z,1.03
2023-05-02T18:18:43.132Z,1.00
2023-05-02T18:21:09.857Z,1.30
2023-05-02T18:23:36.609Z,1.10
2023-05-02T18:26:03.483Z,1.58
2023-05-02T18:28:30.077Z,1.15
2023-05-02T18:30:56.561Z,1.35
2023-05-02T18:33:23.144Z,1.02
2023-05-02T18:35:49.784Z,1.10
2023-05-02T18:38:16.255Z,1.00
2023-05-02T18:40:42.917Z,1.13
2023-05-02T18:43:09.428Z,1.20
2023-05-02T18:45:36.463Z,1.05
2023-05-02T18:48:03.627Z,1.08
2023-05-02T18:50:30.318Z,1.55
2023-05-02T18:52:56.809Z,1.30
2023-05-02T18:55:25.164Z,1.58
2023-05-02T18:57:52.193Z,1.40
2023-05-02T19:00:20.601Z,1.50
2023-05-02T19:02:47.948Z,1.15
2023-05-02T19:05:15.221Z,1.20
2023-05-02T19:07:42.487Z,1.13
2023-05-02T19:10:11.152Z,1.15
2023-05-02T19:12:37.946Z,1.13
2023-05-02T19:15:05.122Z,1.08
2023-05-02T19:17:31.667Z,1.10
2023-05-02T19:19:58.342Z,1.35
2023-05-02T19:22:27.635Z,1.27
2023-05-02T19:24:54.566Z,1.10
2023-05-02T19:27:23.150Z,1.10
2023-05-02T19:29:52.655Z,0.90
2023-05-02T19:34:50.780Z,1.20
2023-05-02T19:37:17.524Z,1.20
2023-05-02T19:39:44.081Z,0.98
2023-05-02T19:42:10.906Z,1.50
2023-05-02T19:44:37.889Z,1.25
2023-05-02T19:47:04.507Z,1.50
2023-05-02T19:49:31.062Z,1.63
2023-05-02T19:51:57.509Z,1.83
2023-05-02T19:54:24.104Z,1.70
2023-05-02T19:56:50.638Z,1.77
2023-05-02T19:59:17.800Z,1.83
2023-05-02T20:01:45.160Z,1.88
2023-05-02T20:04:11.819Z,1.90
2023-05-02T20:06:38.389Z,1.70
2023-05-02T20:09:05.390Z,2.05
2023-05-02T20:11:32.976Z,1.80
2023-05-02T20:13:59.902Z,1.63
2023-05-02T20:16:27.177Z,2.20
2023-05-02T20:18:53.797Z,1.60
2023-05-02T20:21:20.327Z,1.70
2023-05-02T20:23:46.867Z,1.65
2023-05-02T20:26:16.195Z,1.90
2023-05-02T20:28:42.704Z,1.67
2023-05-02T20:31:09.392Z,1.73
2023-05-02T20:33:44.702Z,1.42
2023-05-02T20:36:13.579Z,1.40
2023-05-02T20:38:42.740Z,1.40
2023-05-02T20:43:40.372Z,0.98
2023-05-02T20:46:11.100Z,1.30
2023-05-02T20:48:38.106Z,1.38
2023-05-02T20:51:04.803Z,1.67
2023-05-02T20:53:34.122Z,1.48
2023-05-02T20:56:00.673Z,1.42
2023-05-02T20:58:27.086Z,1.65
2023-05-02T21:00:54.195Z,1.42
2023-05-02T21:03:21.314Z,1.58
2023-05-02T21:05:54.886Z,1.30
2023-05-02T21:08:21.652Z,1.60
2023-05-02T21:10:48.126Z,1.50
2023-05-02T21:13:14.715Z,1.45
2023-05-02T21:15:41.388Z,1.80
2023-05-02T21:18:08.015Z,1.50
2023-05-02T21:20:34.620Z,1.27
2023-05-02T21:23:01.172Z,1.67
2023-05-02T21:25:27.680Z,1.58
2023-05-02T21:27:54.128Z,1.48
2023-05-02T21:30:20.697Z,1.55
2023-05-02T21:32:47.308Z,1.38
2023-05-02T21:35:13.840Z,1.75
2023-05-02T21:37:40.471Z,1.70
2023-05-02T21:40:07.404Z,1.50
2023-05-02T21:42:34.087Z,1.60
2023-05-02T21:45:01.100Z,1.77
2023-05-02T21:47:27.579Z,1.48
2023-05-02T21:49:54.539Z,1.73
2023-05-02T21:52:21.000Z,1.63
2023-05-02T21:54:50.106Z,1.40
2023-05-02T21:57:16.798Z,1.48
2023-05-02T21:59:43.366Z,1.70
2023-05-02T22:02:09.941Z,1.50
2023-05-02T22:04:36.956Z,1.60
2023-05-02T22:07:06.777Z,1.42
2023-05-02T22:09:33.767Z,1.52
2023-05-02T22:12:00.316Z,1.45
2023-05-02T22:14:33.791Z,1.50
2023-05-02T22:17:08.470Z,2.15
2023-05-02T22:19:35.026Z,1.58
2023-05-02T22:22:01.756Z,1.70
2023-05-02T22:24:28.845Z,2.10
2023-05-02T22:26:58.042Z,1.60
2023-05-02T22:29:24.696Z,1.75
2023-05-02T22:31:53.146Z,1.98
2023-05-02T22:34:20.003Z,1.60
2023-05-02T22:36:46.493Z,1.70
2023-05-02T22:39:15.853Z,1.73
2023-05-02T22:41:42.740Z,2.03
2023-05-02T22:44:09.415Z,1.75
2023-05-02T22:46:38.149Z,1.75
2023-05-02T22:49:10.419Z,1.50
2023-05-02T22:51:43.574Z,1.70
2023-05-02T22:54:10.284Z,1.60
2023-05-02T22:56:36.740Z,2.00
2023-05-02T22:59:03.478Z,1.67
2023-05-02T23:01:30.095Z,2.15
2023-05-02T23:03:56.671Z,1.60
2023-05-02T23:06:23.716Z,1.55
2023-05-02T23:08:50.572Z,1.60
2023-05-02T23:11:16.952Z,1.88
2023-05-02T23:13:43.490Z,1.85
2023-05-02T23:16:10.352Z,1.95
2023-05-02T23:18:36.817Z,1.75
2023-05-02T23:21:03.996Z,1.77
2023-05-02T23:23:30.710Z,1.55
2023-05-02T23:25:57.503Z,2.00
2023-05-02T23:28:24.012Z,1.88
2023-05-02T23:30:50.761Z,1.60
2023-05-02T23:35:58.031Z,1.95
2023-05-02T23:38:24.925Z,2.20
2023-05-02T23:40:54.971Z,2.10
2023-05-02T23:43:21.967Z,2.40
2023-05-02T23:45:48.496Z,2.30
2023-05-02T23:48:14.939Z,1.75
2023-05-02T23:50:41.414Z,1.92
2023-05-02T23:53:07.918Z,1.65
2023-05-02T23:55:34.810Z,1.45
2023-05-02T23:58:01.316Z,1.88
